Time,TemperatureF,DewpointF,PressureIn,WindDirection,WindDirectionDegrees,WindSpeedMPH,WindSpeedGustMPH,Humidity,HourlyPrecipIn,Conditions,Clouds,dailyrainin,SoftwareType,DateUTC
2013-01-07 00:00:00,35.8,28.7,30.04,North,0,1.0,3.0,75,0.00,,---,0.00,VWS V14.01,2013-01-07 05:00:00,
2013-01-07 00:15:00,35.8,28.7,30.05,North,0,1.0,3.0,75,0.00,,---,0.00,VWS V14.01,2013-01-07 05:15:00,
2013-01-07 00:30:00,35.6,28.5,30.05,North,0,1.0,3.0,75,0.00,,---,0.00,VWS V14.01,2013-01-07 05:30:00,
2013-01-07 00:45:00,35.7,28.6,30.06,North,0,1.0,2.0,75,0.00,,---,0.00,VWS V14.01,2013-01-07 05:45:00,
2013-01-07 01:00:00,35.1,28.6,30.06,North,0,1.0,2.0,77,0.00,,---,0.00,VWS V14.01,2013-01-07 06:00:00,
2013-01-07 01:15:00,34.7,28.2,30.06,North,0,0.0,1.0,77,0.00,,---,0.00,VWS V14.01,2013-01-07 06:15:00,
2013-01-07 01:30:00,34.0,27.9,30.07,North,0,0.0,1.0,78,0.00,,---,0.00,VWS V14.01,2013-01-07 06:30:00,
2013-01-07 01:45:00,33.2,28.0,30.07,North,0,0.0,1.0,81,0.00,,---,0.00,VWS V14.01,2013-01-07 06:45:00,
2013-01-07 02:00:00,32.8,27.6,30.08,North,0,0.0,1.0,81,0.00,,---,0.00,VWS V14.01,2013-01-07 07:00:00,
2013-01-07 02:15:00,32.7,27.5,30.08,North,0,0.0,2.0,81,0.00,,---,0.00,VWS V14.01,2013-01-07 07:15:00,
2013-01-07 02:30:00,32.9,27.7,30.09,North,0,0.0,2.0,81,0.00,,---,0.00,VWS V14.01,2013-01-07 07:30:00,
2013-01-07 02:45:00,32.1,27.5,30.10,North,0,0.0,1.0,83,0.00,,---,0.00,VWS V14.01,2013-01-07 07:45:00,
2013-01-07 03:00:00,31.8,27.2,30.09,North,0,0.0,1.0,83,0.00,,---,0.00,VWS V14.01,2013-01-07 08:00:00,
2013-01-07 03:15:00,31.8,27.2,30.09,North,0,1.0,2.0,83,0.00,,---,0.00,VWS V14.01,2013-01-07 08:15:00,
2013-01-07 03:30:00,32.4,27.5,30.10,North,0,1.0,3.0,82,0.00,,---,0.00,VWS V14.01,2013-01-07 08:30:00,
2013-01-07 03:45:00,33.0,27.8,30.10,North,0,1.0,2.0,81,0.00,,---,0.00,VWS V14.01,2013-01-07 08:45:00,
2013-01-07 04:00:00,33.7,28.2,30.11,North,0,1.0,2.0,80,0.00,,---,0.00,VWS V14.01,2013-01-07 09:00:00,
2013-01-07 04:15:00,34.0,28.2,30.11,North,0,1.0,2.0,79,0.00,,---,0.00,VWS V14.01,2013-01-07 09:15:00,
2013-01-07 04:30:00,33.8,28.3,30.12,North,0,1.0,3.0,80,0.00,,---,0.00,VWS V14.01,2013-01-07 09:30:00,
2013-01-07 04:45:00,33.9,28.1,30.12,North,0,1.0,4.0,79,0.00,,---,0.00,VWS V14.01,2013-01-07 09:45:00,
2013-01-07 05:00:00,33.6,28.1,30.13,North,0,1.0,3.0,80,0.00,,---,0.00,VWS V14.01,2013-01-07 10:00:00,
2013-01-07 05:15:00,33.5,28.0,30.14,North,0,1.0,2.0,80,0.00,,---,0.00,VWS V14.01,2013-01-07 10:15:00,
2013-01-07 05:30:00,34.0,28.2,30.15,North,0,1.0,2.0,79,0.00,,---,0.00,VWS V14.01,2013-01-07 10:30:00,
2013-01-07 05:45:00,34.6,28.8,30.16,North,0,1.0,2.0,79,0.00,,---,0.00,VWS V14.01,2013-01-07 10:45:00,
2013-01-07 06:00:00,34.5,28.7,30.17,North,0,0.0,1.0,79,0.00,,---,0.00,VWS V14.01,2013-01-07 11:00:00,
2013-01-07 06:15:00,34.1,28.3,30.18,North,0,0.0,2.0,79,0.00,,---,0.00,VWS V14.01,2013-01-07 11:15:00,
2013-01-07 06:30:00,34.0,28.2,30.18,North,0,0.0,1.0,79,0.00,,---,0.00,VWS V14.01,2013-01-07 11:30:00,
2013-01-07 06:45:00,33.4,28.2,30.19,North,0,0.0,1.0,81,0.00,,---,0.00,VWS V14.01,2013-01-07 11:45:00,
2013-01-07 07:00:00,32.8,27.9,30.20,North,0,0.0,3.0,82,0.00,,---,0.00,VWS V14.01,2013-01-07 12:00:00,
2013-01-07 07:15:00,33.3,28.4,30.20,North,0,0.0,1.0,82,0.00,,---,0.00,VWS V14.01,2013-01-07 12:15:00,
2013-01-07 07:30:00,34.1,28.6,30.22,North,0,0.0,2.0,80,0.00,,---,0.00,VWS V14.01,2013-01-07 12:30:00,
2013-01-07 07:57:00,35.9,29.4,30.24,North,356,0.0,3.0,77,0.00,,---,0.00,VWS V14.01,2013-01-07 12:57:00,
2013-01-07 08:00:00,35.9,29.4,30.24,North,356,0.0,3.0,77,0.00,,---,0.00,VWS V14.01,2013-01-07 13:00:00,
2013-01-07 08:12:00,35.8,29.3,30.25,North,357,0.0,4.0,77,0.00,,---,0.00,VWS V14.01,2013-01-07 13:12:00,
2013-01-07 08:15:00,35.8,29.3,30.25,North,357,0.0,4.0,77,0.00,,---,0.00,VWS V14.01,2013-01-07 13:15:00,
2013-01-07 08:27:00,36.1,29.3,30.25,North,357,1.0,2.0,76,0.00,,---,0.00,VWS V14.01,2013-01-07 13:27:00,
2013-01-07 08:30:00,36.1,29.3,30.25,North,357,1.0,2.0,76,0.00,,---,0.00,VWS V14.01,2013-01-07 13:30:00,
2013-01-07 08:42:00,36.8,29.0,30.26,North,356,2.0,5.0,73,0.00,,---,0.00,VWS V14.01,2013-01-07 13:42:00,
2013-01-07 08:45:00,36.8,29.0,30.26,North,356,2.0,5.0,73,0.00,,---,0.00,VWS V14.01,2013-01-07 13:45:00,
2013-01-07 08:57:00,37.4,28.9,30.26,North,357,2.0,6.0,71,0.00,,---,0.00,VWS V14.01,2013-01-07 13:57:00,
2013-01-07 09:00:00,37.4,28.9,30.26,North,357,2.0,6.0,71,0.00,,---,0.00,VWS V14.01,2013-01-07 14:00:00,
2013-01-07 09:27:00,38.3,28.7,30.28,North,357,1.0,5.0,68,0.00,,---,0.00,VWS V14.01,2013-01-07 14:27:00,
2013-01-07 09:30:00,38.3,28.7,30.28,North,357,1.0,5.0,68,0.00,,---,0.00,VWS V14.01,2013-01-07 14:30:00,
2013-01-07 09:42:00,38.5,27.0,30.29,North,356,4.0,7.0,63,0.00,,---,0.00,VWS V14.01,2013-01-07 14:42:00,
2013-01-07 09:45:00,38.5,27.0,30.29,North,356,4.0,7.0,63,0.00,,---,0.00,VWS V14.01,2013-01-07 14:45:00,
2013-01-07 11:12:00,40.4,26.4,30.31,North,357,1.0,7.0,57,0.00,,---,0.00,VWS V14.01,2013-01-07 16:12:00,
2013-01-07 11:15:00,40.4,26.4,30.31,North,357,1.0,7.0,57,0.00,,---,0.00,VWS V14.01,2013-01-07 16:15:00,
2013-01-07 11:27:00,40.1,25.7,30.31,North,356,2.0,7.0,56,0.00,,---,0.00,VWS V14.01,2013-01-07 16:27:00,
2013-01-07 11:57:00,40.4,26.0,30.31,North,356,2.0,10.0,56,0.00,,---,0.00,VWS V14.01,2013-01-07 16:57:00,
2013-01-07 12:00:00,40.4,26.0,30.31,North,356,2.0,10.0,56,0.00,,---,0.00,VWS V14.01,2013-01-07 17:00:00,
2013-01-07 13:12:00,42.3,25.0,30.32,North,356,0.0,3.0,50,0.00,,---,0.00,VWS V14.01,2013-01-07 18:12:00,
2013-01-07 13:27:00,42.3,25.0,30.32,North,356,0.0,4.0,50,0.00,,---,0.00,VWS V14.01,2013-01-07 18:27:00,
2013-01-07 13:30:00,42.3,25.0,30.32,North,356,0.0,4.0,50,0.00,,---,0.00,VWS V14.01,2013-01-07 18:30:00,
2013-01-07 14:12:00,41.9,24.1,30.33,North,357,1.0,3.0,49,0.00,,---,0.00,VWS V14.01,2013-01-07 19:12:00,
2013-01-07 14:15:00,41.9,24.1,30.33,North,357,1.0,3.0,49,0.00,,---,0.00,VWS V14.01,2013-01-07 19:15:00,
2013-01-07 14:27:00,41.7,23.5,30.33,North,356,2.0,4.0,48,0.00,,---,0.00,VWS V14.01,2013-01-07 19:27:00,
2013-01-07 14:30:00,41.7,23.5,30.33,North,356,2.0,4.0,48,0.00,,---,0.00,VWS V14.01,2013-01-07 19:30:00,
2013-01-07 14:42:00,41.6,23.4,30.33,North,356,0.0,5.0,48,0.00,,---,0.00,VWS V14.01,2013-01-07 19:42:00,
2013-01-07 14:45:00,41.6,23.4,30.33,North,356,0.0,5.0,48,0.00,,---,0.00,VWS V14.01,2013-01-07 19:45:00,
2013-01-07 14:57:00,41.5,23.3,30.34,North,356,1.0,2.0,48,0.00,,---,0.00,VWS V14.01,2013-01-07 19:57:00,
2013-01-07 15:00:00,41.5,23.3,30.34,North,356,1.0,2.0,48,0.00,,---,0.00,VWS V14.01,2013-01-07 20:00:00,
2013-01-07 15:12:00,41.6,23.4,30.34,North,357,1.0,4.0,48,0.00,,---,0.00,VWS V14.01,2013-01-07 20:12:00,
2013-01-07 15:15:00,41.6,23.4,30.34,North,357,1.0,4.0,48,0.00,,---,0.00,VWS V14.01,2013-01-07 20:15:00,
2013-01-07 15:27:00,40.9,23.2,30.35,North,356,1.0,4.0,49,0.00,,---,0.00,VWS V14.01,2013-01-07 20:27:00,
2013-01-07 15:30:00,40.9,23.2,30.35,North,356,1.0,4.0,49,0.00,,---,0.00,VWS V14.01,2013-01-07 20:30:00,
2013-01-07 15:44:00,41.0,22.8,30.36,North,356,1.0,3.0,48,0.00,,---,0.00,VWS V14.01,2013-01-07 20:44:00,
2013-01-07 15:45:00,41.0,22.8,30.36,North,356,1.0,3.0,48,0.00,,---,0.00,VWS V14.01,2013-01-07 20:45:00,
2013-01-07 15:57:00,40.3,23.1,30.36,North,357,1.0,2.0,50,0.00,,---,0.00,VWS V14.01,2013-01-07 20:57:00,
2013-01-07 16:00:00,40.3,23.1,30.36,North,357,1.0,2.0,50,0.00,,---,0.00,VWS V14.01,2013-01-07 21:00:00,
2013-01-07 16:12:00,39.5,23.4,30.36,North,356,0.0,4.0,52,0.00,,---,0.00,VWS V14.01,2013-01-07 21:12:00,
2013-01-07 16:15:00,39.5,23.4,30.36,North,356,0.0,4.0,52,0.00,,---,0.00,VWS V14.01,2013-01-07 21:15:00,
2013-01-07 16:27:00,38.7,23.1,30.37,North,356,0.0,2.0,53,0.00,,---,0.00,VWS V14.01,2013-01-07 21:27:00,
2013-01-07 16:30:00,38.7,23.1,30.37,North,356,0.0,2.0,53,0.00,,---,0.00,VWS V14.01,2013-01-07 21:30:00,
2013-01-07 16:45:00,37.8,22.2,30.37,North,356,0.0,1.0,53,0.00,,---,0.00,VWS V14.01,2013-01-07 21:45:00,
2013-01-07 16:57:00,36.8,22.2,30.38,North,357,0.0,1.0,55,0.00,,---,0.00,VWS V14.01,2013-01-07 21:57:00,
2013-01-07 17:00:00,36.8,22.2,30.38,North,357,0.0,1.0,55,0.00,,---,0.00,VWS V14.01,2013-01-07 22:00:00,
2013-01-07 17:14:00,35.8,22.1,30.38,North,357,0.0,1.0,57,0.00,,---,0.00,VWS V14.01,2013-01-07 22:14:00,
2013-01-07 17:15:00,35.8,22.1,30.38,North,357,0.0,1.0,57,0.00,,---,0.00,VWS V14.01,2013-01-07 22:15:00,
2013-01-07 17:27:00,35.1,21.4,30.37,North,357,0.0,1.0,57,0.00,,---,0.00,VWS V14.01,2013-01-07 22:27:00,
2013-01-07 17:30:00,35.1,21.4,30.37,North,357,0.0,1.0,57,0.00,,---,0.00,VWS V14.01,2013-01-07 22:30:00,
2013-01-07 17:42:00,34.5,21.7,30.38,North,356,1.0,1.0,59,0.00,,---,0.00,VWS V14.01,2013-01-07 22:42:00,
2013-01-07 17:45:00,34.5,21.7,30.38,North,356,1.0,1.0,59,0.00,,---,0.00,VWS V14.01,2013-01-07 22:45:00,
2013-01-07 17:57:00,34.2,21.4,30.38,North,357,0.0,1.0,59,0.00,,---,0.00,VWS V14.01,2013-01-07 22:57:00,
2013-01-07 18:00:00,34.2,21.4,30.38,North,357,0.0,1.0,59,0.00,,---,0.00,VWS V14.01,2013-01-07 23:00:00,
2013-01-07 18:12:00,34.5,21.3,30.38,North,357,0.0,1.0,58,0.00,,---,0.00,VWS V14.01,2013-01-07 23:12:00,
2013-01-07 18:15:00,34.5,21.3,30.38,North,357,0.0,1.0,58,0.00,,---,0.00,VWS V14.01,2013-01-07 23:15:00,
2013-01-07 18:27:00,33.5,21.1,30.38,North,356,0.0,1.0,60,0.00,,---,0.00,VWS V14.01,2013-01-07 23:27:00,
2013-01-07 18:30:00,33.5,21.1,30.38,North,356,0.0,1.0,60,0.00,,---,0.00,VWS V14.01,2013-01-07 23:30:00,
2013-01-07 18:42:00,33.0,21.4,30.38,North,357,0.0,1.0,62,0.00,,---,0.00,VWS V14.01,2013-01-07 23:42:00,
2013-01-07 18:45:00,33.0,21.4,30.38,North,357,0.0,1.0,62,0.00,,---,0.00,VWS V14.01,2013-01-07 23:45:00,
2013-01-07 18:57:00,32.8,21.6,30.38,North,357,0.0,1.0,63,0.00,,---,0.00,VWS V14.01,2013-01-07 23:57:00,
2013-01-07 19:00:00,32.8,21.6,30.38,North,357,0.0,1.0,63,0.00,,---,0.00,VWS V14.01,2013-01-08 00:00:00,
2013-01-07 19:12:00,31.5,22.2,30.38,North,357,0.0,1.0,68,0.00,,---,0.00,VWS V14.01,2013-01-08 00:12:00,
2013-01-07 19:15:00,31.5,22.2,30.38,North,357,0.0,1.0,68,0.00,,---,0.00,VWS V14.01,2013-01-08 00:15:00,
2013-01-07 19:27:00,31.6,21.2,30.38,North,356,0.0,1.0,65,0.00,,---,0.00,VWS V14.01,2013-01-08 00:27:00,
2013-01-07 19:30:00,31.6,21.2,30.38,North,356,0.0,1.0,65,0.00,,---,0.00,VWS V14.01,2013-01-08 00:30:00,
2013-01-07 19:42:00,30.6,21.3,30.38,North,357,0.0,1.0,68,0.00,,---,0.00,VWS V14.01,2013-01-08 00:42:00,
2013-01-07 19:45:00,30.6,21.3,30.38,North,357,0.0,1.0,68,0.00,,---,0.00,VWS V14.01,2013-01-08 00:45:00,
2013-01-07 19:57:00,30.2,21.6,30.38,North,356,0.0,1.0,70,0.00,,---,0.00,VWS V14.01,2013-01-08 00:57:00,
2013-01-07 20:00:00,30.2,21.6,30.38,North,356,0.0,1.0,70,0.00,,---,0.00,VWS V14.01,2013-01-08 01:00:00,
2013-01-07 20:12:00,30.3,21.4,30.38,North,357,0.0,1.0,69,0.00,,---,0.00,VWS V14.01,2013-01-08 01:12:00,
2013-01-07 20:15:00,30.3,21.4,30.38,North,357,0.0,1.0,69,0.00,,---,0.00,VWS V14.01,2013-01-08 01:15:00,
2013-01-07 20:27:00,30.2,21.6,30.38,North,356,0.0,1.0,70,0.00,,---,0.00,VWS V14.01,2013-01-08 01:27:00,
2013-01-07 20:30:00,30.2,21.6,30.38,North,356,0.0,1.0,70,0.00,,---,0.00,VWS V14.01,2013-01-08 01:30:00,
2013-01-07 20:44:00,29.3,21.1,30.38,North,356,0.0,0.0,71,0.00,,---,0.00,VWS V14.01,2013-01-08 01:44:00,
2013-01-07 20:45:00,29.3,21.1,30.38,North,356,0.0,0.0,71,0.00,,---,0.00,VWS V14.01,2013-01-08 01:45:00,
2013-01-07 20:57:00,29.1,21.2,30.37,North,357,0.0,1.0,72,0.00,,---,0.00,VWS V14.01,2013-01-08 01:57:00,
2013-01-07 21:00:00,29.1,21.2,30.37,North,357,0.0,1.0,72,0.00,,---,0.00,VWS V14.01,2013-01-08 02:00:00,
2013-01-07 21:12:00,29.1,21.2,30.37,North,357,1.0,1.0,72,0.00,,---,0.00,VWS V14.01,2013-01-08 02:12:00,
2013-01-07 21:15:00,29.1,21.2,30.37,North,357,1.0,1.0,72,0.00,,---,0.00,VWS V14.01,2013-01-08 02:15:00,
2013-01-07 21:27:00,28.5,21.0,30.37,North,356,0.0,1.0,73,0.00,,---,0.00,VWS V14.01,2013-01-08 02:27:00,
2013-01-07 21:30:00,28.5,21.0,30.37,North,356,0.0,1.0,73,0.00,,---,0.00,VWS V14.01,2013-01-08 02:30:00,
2013-01-07 21:42:00,27.9,21.0,30.37,North,356,0.0,1.0,75,0.00,,---,0.00,VWS V14.01,2013-01-08 02:42:00,
2013-01-07 21:45:00,27.9,21.0,30.37,North,356,0.0,1.0,75,0.00,,---,0.00,VWS V14.01,2013-01-08 02:45:00,
2013-01-07 21:57:00,27.7,21.1,30.37,North,357,0.0,0.0,76,0.00,,---,0.00,VWS V14.01,2013-01-08 02:57:00,
2013-01-07 22:00:00,27.7,21.1,30.37,North,357,0.0,0.0,76,0.00,,---,0.00,VWS V14.01,2013-01-08 03:00:00,
2013-01-07 22:15:00,27.8,21.2,30.38,North,357,0.0,1.0,76,0.00,,---,0.00,VWS V14.01,2013-01-08 03:15:00,
2013-01-07 22:27:00,27.4,21.1,30.38,North,356,0.0,0.0,77,0.00,,---,0.00,VWS V14.01,2013-01-08 03:27:00,
2013-01-07 22:30:00,27.4,21.1,30.38,North,356,0.0,0.0,77,0.00,,---,0.00,VWS V14.01,2013-01-08 03:30:00,
2013-01-07 22:42:00,27.0,21.1,30.38,North,357,0.0,1.0,78,0.00,,---,0.00,VWS V14.01,2013-01-08 03:42:00,
2013-01-07 22:45:00,27.0,21.1,30.38,North,357,0.0,1.0,78,0.00,,---,0.00,VWS V14.01,2013-01-08 03:45:00,
2013-01-07 22:57:00,27.6,21.6,30.38,North,357,0.0,1.0,78,0.00,,---,0.00,VWS V14.01,2013-01-08 03:57:00,
2013-01-07 23:00:00,27.6,21.6,30.38,North,357,0.0,1.0,78,0.00,,---,0.00,VWS V14.01,2013-01-08 04:00:00,
2013-01-07 23:12:00,27.9,21.6,30.38,North,356,0.0,1.0,77,0.00,,---,0.00,VWS V14.01,2013-01-08 04:12:00,
2013-01-07 23:15:00,27.9,21.6,30.38,North,356,0.0,1.0,77,0.00,,---,0.00,VWS V14.01,2013-01-08 04:15:00,
2013-01-07 23:27:00,27.7,21.8,30.38,North,357,0.0,1.0,78,0.00,,---,0.00,VWS V14.01,2013-01-08 04:27:00,
2013-01-07 23:30:00,27.7,21.8,30.38,North,357,0.0,1.0,78,0.00,,---,0.00,VWS V14.01,2013-01-08 04:30:00,
2013-01-07 23:43:00,26.9,21.3,30.38,North,356,0.0,1.0,79,0.00,,---,0.00,VWS V14.01,2013-01-08 04:43:00,
2013-01-07 23:45:00,26.9,21.3,30.38,North,356,0.0,1.0,79,0.00,,---,0.00,VWS V14.01,2013-01-08 04:45:00,
2013-01-07 23:57:00,26.2,20.9,30.38,North,357,0.0,1.0,80,0.00,,---,0.00,VWS V14.01,2013-01-08 04:57:00,